Pagrindinis puslapis
METAR-TAF:

METAR-TAF

Oro uostai :

Dubajaus tarptautinis oro uostas

Dubajus, Jungtiniai Arabų Emyratai

platuma: 25-15-10N, ilguma: 055-21-52E, Aukštis: 8 m

Dabartinis oras

Ataskaita buvo paskelbta 30 minutes, ne 23:00 UTC
Vėjas 5 kt iš Rytų, svyruoja nuo Šiaurės Rytų ir Rytų/Pietryčių
Temperatūra 32°C
Drėgmė 63%
Slėgis 1005 hPa
Matomumas 10 km arba daugiau
nėra debesų žemiau 1500 m ir nėra kamuolinių lietaus debesų

METAR: OMDB 192300Z 09005KT 040V120 CAVOK 32/24 Q1005 NOSIG

Laikas: 03:30 (23:30 UTC)

Prognozė

Ataskaita buvo paskelbta 6 valandos ir 37 minutes, ne 16:53 UTC
Prognozė galioja nuo 19 metu 18 UTC su 21 metu 00 UTC
Vėjas 5 kt iš Rytų/Šiaurės Rytų
Matomumas: 8000 m
Tapsmas
nuo 20 metu 01 UTC su 20 metu 03 UTC
Vėjas 10 kt iš Pietų
Tapsmas
nuo 20 metu 08 UTC su 20 metu 10 UTC
Vėjas 12 kt iš Vakarų/Šiaurės Vakarų
Tapsmas
nuo 20 metu 16 UTC su 20 metu 18 UTC
Vėjas 5 kt iš Rytų/Pietryčių

TAF: OMDB 191653Z 1918/2100 07005KT 8000 NSC BECMG 2001/2003 18010KT BECMG 2008/2010 30012KT BECMG 2016/2018 12005KT

Orai ataskaitas ir orų prognozės (METAR, TAF).

turimą stotys yra geltonos ir raudonos taškus žemėlapyje.

Perkelti pele per norėdami pamatyti stoties vardą.

Tada spustelėkite, norėdami matyti oro stebėjimo ir prognozės.

Norėdami pakeisti žemėlapį: spustelėkite ant žalios mygtukų su juodo kryžiaus žemyn,; žalią mygtuką su brūkšneliu, jei norite nutolinti; arba žalių rodyklių gretimoms žemėlapius.


METAR-TAF: